createdAt,value
2023-04-18T00:00:37.939Z,2.50
2023-04-18T00:01:37.931Z,2.70
2023-04-18T00:02:38.010Z,2.70
2023-04-18T00:03:38.197Z,2.50
2023-04-18T00:04:37.924Z,2.50
2023-04-18T00:05:37.949Z,3.00
2023-04-18T00:06:37.831Z,2.90
2023-04-18T00:07:37.822Z,2.50
2023-04-18T00:08:37.814Z,2.70
2023-04-18T00:09:38.792Z,2.90
2023-04-18T00:10:37.802Z,3.10
2023-04-18T00:11:37.760Z,2.90
2023-04-18T00:12:37.742Z,2.60
2023-04-18T00:13:37.731Z,2.60
2023-04-18T00:14:37.747Z,2.80
2023-04-18T00:15:37.728Z,2.90
2023-04-18T00:16:37.756Z,2.70
2023-04-18T00:17:37.728Z,2.80
2023-04-18T00:18:37.756Z,3.00
2023-04-18T00:19:37.654Z,2.80
2023-04-18T00:20:37.692Z,2.90
2023-04-18T00:21:37.629Z,3.00
2023-04-18T00:22:37.615Z,3.10
2023-04-18T00:23:37.615Z,2.60
2023-04-18T00:24:37.613Z,3.00
2023-04-18T00:25:37.619Z,3.00
2023-04-18T00:26:37.569Z,2.90
2023-04-18T00:27:37.562Z,3.00
2023-04-18T00:28:37.543Z,2.90
2023-04-18T00:29:37.544Z,3.10
2023-04-18T00:30:37.579Z,3.10
2023-04-18T00:31:37.500Z,2.90
2023-04-18T00:32:37.544Z,2.30
2023-04-18T00:33:37.475Z,2.70
2023-04-18T00:34:37.465Z,2.50
2023-04-18T00:35:37.490Z,3.00
2023-04-18T00:36:37.434Z,2.80
2023-04-18T00:37:37.460Z,3.10
2023-04-18T00:38:37.407Z,2.70
2023-04-18T00:39:37.391Z,3.10
2023-04-18T00:40:37.427Z,2.80
2023-04-18T00:41:37.375Z,2.50
2023-04-18T00:42:37.364Z,2.70
2023-04-18T00:43:37.338Z,2.90
2023-04-18T00:44:37.331Z,2.70
2023-04-18T00:45:37.348Z,2.60
2023-04-18T00:46:37.356Z,2.80
2023-04-18T00:47:37.337Z,3.10
2023-04-18T00:48:37.280Z,2.40
2023-04-18T00:49:37.273Z,2.40
2023-04-18T00:50:37.302Z,2.20
2023-04-18T00:51:37.238Z,2.90
2023-04-18T00:52:37.237Z,2.60
2023-04-18T00:53:37.207Z,2.40
2023-04-18T00:54:37.206Z,2.80
2023-04-18T00:55:37.206Z,2.50
2023-04-18T00:56:37.190Z,2.70
2023-04-18T00:57:37.172Z,3.30
2023-04-18T00:58:37.157Z,2.90
2023-04-18T00:59:37.126Z,2.40
2023-04-18T01:00:37.165Z,2.40
2023-04-18T01:01:37.120Z,2.50
2023-04-18T01:02:37.180Z,2.50
2023-04-18T01:03:37.254Z,2.60
2023-04-18T01:04:37.144Z,2.70
2023-04-18T01:05:37.081Z,2.50
2023-04-18T01:06:37.342Z,2.70
2023-04-18T01:07:37.026Z,2.70
2023-04-18T01:08:37.027Z,2.50
2023-04-18T01:09:37.001Z,2.90
2023-04-18T01:10:37.019Z,3.10
2023-04-18T01:11:36.978Z,2.60
2023-04-18T01:12:36.972Z,2.70
2023-04-18T01:13:36.943Z,2.50
2023-04-18T01:14:36.971Z,2.90
2023-04-18T01:15:37.099Z,2.80
2023-04-18T01:16:37.016Z,2.70
2023-04-18T01:17:36.936Z,2.80
2023-04-18T01:18:36.902Z,2.60
2023-04-18T01:19:36.879Z,2.90
2023-04-18T01:20:36.895Z,2.60
2023-04-18T01:21:36.847Z,2.50
2023-04-18T01:22:36.849Z,2.30
2023-04-18T01:23:36.817Z,3.10
2023-04-18T01:24:36.812Z,2.50
2023-04-18T01:25:36.814Z,2.70
2023-04-18T01:26:36.799Z,3.20
2023-04-18T01:27:36.759Z,3.10
2023-04-18T01:28:36.797Z,2.90
2023-04-18T01:29:38.879Z,3.50
2023-04-18T01:30:36.764Z,3.20
2023-04-18T01:31:36.742Z,3.30
2023-04-18T01:32:36.741Z,2.80
2023-04-18T01:33:36.680Z,3.30
2023-04-18T01:34:36.672Z,2.90
2023-04-18T01:35:36.688Z,3.70
2023-04-18T01:36:36.647Z,3.00
2023-04-18T01:37:36.637Z,3.20
2023-04-18T01:38:36.621Z,3.20
2023-04-18T01:39:36.606Z,3.60
2023-04-18T01:40:36.633Z,3.60
2023-04-18T01:41:36.588Z,3.20
2023-04-18T01:42:36.564Z,3.60
2023-04-18T01:43:36.552Z,3.30
2023-04-18T01:44:36.553Z,3.60
2023-04-18T01:45:36.553Z,3.30
2023-04-18T01:46:36.620Z,3.60
2023-04-18T01:47:36.632Z,3.30
2023-04-18T01:48:36.499Z,3.70
2023-04-18T01:49:36.476Z,3.40
2023-04-18T01:50:36.574Z,3.10
2023-04-18T01:51:36.448Z,3.90
2023-04-18T01:52:36.433Z,3.50
2023-04-18T01:53:36.421Z,3.60
2023-04-18T01:54:36.423Z,3.40
2023-04-18T01:55:36.435Z,3.90
2023-04-18T01:56:36.405Z,3.70
2023-04-18T01:57:36.366Z,3.50
2023-04-18T01:58:36.365Z,3.60
2023-04-18T01:59:36.350Z,3.80
2023-04-18T02:00:36.381Z,3.80
2023-04-18T02:01:36.331Z,3.70
2023-04-18T02:02:36.441Z,4.40
2023-04-18T02:03:36.454Z,3.50
2023-04-18T02:04:36.276Z,3.80
2023-04-18T02:05:36.312Z,3.50
2023-04-18T02:06:36.250Z,4.40
2023-04-18T02:07:36.253Z,4.00
2023-04-18T02:08:36.262Z,3.80
2023-04-18T02:09:36.220Z,3.70
2023-04-18T02:10:36.250Z,4.60
2023-04-18T02:11:36.200Z,4.00
2023-04-18T02:12:36.167Z,4.00
2023-04-18T02:13:36.168Z,4.00
2023-04-18T02:14:36.163Z,4.50
2023-04-18T02:15:36.162Z,5.00
2023-04-18T02:16:36.159Z,4.80
2023-04-18T02:17:36.143Z,4.40
2023-04-18T02:18:36.096Z,4.90
2023-04-18T02:19:36.102Z,4.60
2023-04-18T02:20:36.130Z,4.90
2023-04-18T02:21:36.062Z,4.80
2023-04-18T02:22:36.034Z,4.80
2023-04-18T02:23:36.030Z,4.50
2023-04-18T02:24:36.018Z,5.70
2023-04-18T02:25:36.048Z,4.70
2023-04-18T02:26:36.001Z,4.80
2023-04-18T02:27:35.988Z,4.30
2023-04-18T02:28:35.969Z,4.80
2023-04-18T02:29:35.990Z,4.70
2023-04-18T02:30:35.966Z,5.00
2023-04-18T02:31:36.001Z,5.00
2023-04-18T02:32:35.930Z,4.40
2023-04-18T02:33:35.909Z,5.40
2023-04-18T02:34:35.884Z,4.30
2023-04-18T02:35:35.916Z,5.20
2023-04-18T02:36:35.863Z,4.70
2023-04-18T02:37:35.859Z,4.50
2023-04-18T02:38:35.828Z,4.90
2023-04-18T02:39:35.834Z,4.30
2023-04-18T02:40:35.828Z,5.00
2023-04-18T02:41:35.798Z,4.60
2023-04-18T02:42:35.790Z,4.70
2023-04-18T02:43:35.773Z,4.40
2023-04-18T02:44:35.798Z,4.20
2023-04-18T02:45:35.818Z,5.00
2023-04-18T02:46:35.746Z,4.60
2023-04-18T02:47:46.953Z,5.00
2023-04-18T02:48:36.703Z,4.00
2023-04-18T02:49:35.704Z,4.90
2023-04-18T02:50:35.717Z,4.70
2023-04-18T02:51:36.620Z,4.80
2023-04-18T02:52:35.658Z,4.30
2023-04-18T02:53:36.598Z,4.60
2023-04-18T02:54:35.621Z,4.50
2023-04-18T02:55:35.633Z,4.20
2023-04-18T02:56:35.603Z,4.80
2023-04-18T02:57:35.574Z,4.30
2023-04-18T02:58:35.580Z,4.10
2023-04-18T02:59:35.561Z,4.40
2023-04-18T03:00:35.580Z,4.30
2023-04-18T03:01:35.547Z,4.00
2023-04-18T03:02:35.649Z,4.10
2023-04-18T03:03:35.656Z,4.30
2023-04-18T03:04:35.562Z,4.20
2023-04-18T03:05:35.509Z,4.30
2023-04-18T03:06:35.479Z,4.30
2023-04-18T03:07:35.442Z,4.20
2023-04-18T03:08:35.581Z,4.40
2023-04-18T03:09:35.426Z,4.10
2023-04-18T03:10:35.458Z,4.30
2023-04-18T03:11:35.396Z,4.40
2023-04-18T03:12:35.417Z,4.40
2023-04-18T03:13:35.413Z,4.50
2023-04-18T03:14:35.373Z,4.50
2023-04-18T03:15:35.426Z,4.20
2023-04-18T03:16:35.340Z,4.50
2023-04-18T03:17:35.343Z,4.20
2023-04-18T03:18:35.328Z,5.40
2023-04-18T03:19:35.287Z,4.40
2023-04-18T03:20:35.323Z,5.30
2023-04-18T03:21:35.295Z,4.60
2023-04-18T03:22:35.270Z,5.00
2023-04-18T03:23:35.231Z,5.70
2023-04-18T03:24:35.261Z,5.10
2023-04-18T03:25:35.252Z,6.00
2023-04-18T03:26:35.215Z,5.90
2023-04-18T03:27:35.185Z,5.80
2023-04-18T03:28:35.381Z,5.70
2023-04-18T03:29:35.166Z,5.90
2023-04-18T03:30:35.183Z,5.20
2023-04-18T03:31:35.194Z,5.80
2023-04-18T03:32:35.234Z,6.60
2023-04-18T03:33:35.106Z,6.00
2023-04-18T03:34:35.100Z,6.30
2023-04-18T03:35:35.108Z,5.60
2023-04-18T03:36:35.078Z,6.00
2023-04-18T03:37:35.045Z,5.00
2023-04-18T03:38:35.046Z,5.30
2023-04-18T03:39:35.348Z,6.00
2023-04-18T03:40:35.472Z,5.80
2023-04-18T03:41:35.001Z,6.60
2023-04-18T03:42:35.005Z,6.00
2023-04-18T03:43:35.017Z,5.60
2023-04-18T03:44:35.120Z,5.90
2023-04-18T03:45:35.688Z,5.90
2023-04-18T03:46:35.097Z,6.00
2023-04-18T03:47:34.960Z,5.70
2023-04-18T03:48:34.922Z,6.00
2023-04-18T03:49:35.088Z,5.80
2023-04-18T03:50:34.915Z,6.10
2023-04-18T03:51:34.861Z,6.30
2023-04-18T03:52:34.904Z,5.70
2023-04-18T03:53:35.005Z,5.40
2023-04-18T03:54:34.800Z,6.40
2023-04-18T03:55:34.804Z,6.30
2023-04-18T03:56:34.913Z,6.10
2023-04-18T03:57:34.738Z,6.30
2023-04-18T03:58:34.784Z,6.00
2023-04-18T03:59:34.784Z,5.50
2023-04-18T04:00:34.745Z,5.90
2023-04-18T04:01:34.715Z,5.60
2023-04-18T04:02:34.830Z,5.80
2023-04-18T04:03:34.726Z,6.00
2023-04-18T04:04:34.689Z,5.80
2023-04-18T04:05:34.711Z,5.10
2023-04-18T04:06:34.648Z,5.90
2023-04-18T04:07:34.610Z,5.50
2023-04-18T04:08:34.598Z,6.00
2023-04-18T04:09:34.583Z,5.60
2023-04-18T04:10:34.588Z,5.50
2023-04-18T04:11:34.587Z,5.60
2023-04-18T04:12:34.552Z,5.70
2023-04-18T04:13:34.536Z,6.20
2023-04-18T04:14:34.533Z,5.80
2023-04-18T04:15:34.523Z,5.40
2023-04-18T04:16:34.550Z,6.20
2023-04-18T04:17:34.515Z,6.00
2023-04-18T04:18:34.505Z,5.70
2023-04-18T04:19:34.479Z,6.40
2023-04-18T04:20:34.446Z,6.10
2023-04-18T04:21:34.590Z,5.80
2023-04-18T04:22:34.416Z,5.50
2023-04-18T04:23:34.457Z,6.10
2023-04-18T04:24:34.393Z,6.00
2023-04-18T04:25:34.388Z,6.10
2023-04-18T04:26:34.408Z,6.20
2023-04-18T04:27:34.364Z,5.80
2023-04-18T04:28:34.346Z,6.00
2023-04-18T04:29:34.329Z,6.30
2023-04-18T04:30:34.358Z,6.10
2023-04-18T04:31:35.138Z,6.00
2023-04-18T04:32:34.316Z,5.70
2023-04-18T04:33:34.277Z,6.70
2023-04-18T04:34:34.319Z,5.40
2023-04-18T04:35:34.265Z,5.80
2023-04-18T04:36:34.269Z,5.80
2023-04-18T04:37:34.222Z,6.50
2023-04-18T04:38:34.211Z,5.90
2023-04-18T04:39:34.187Z,5.80
2023-04-18T04:40:34.179Z,5.80
2023-04-18T04:41:34.198Z,5.70
2023-04-18T04:42:34.157Z,6.00
2023-04-18T04:43:34.147Z,5.60
2023-04-18T04:44:34.175Z,5.50
2023-04-18T04:45:34.187Z,5.10
2023-04-18T04:46:34.141Z,5.40
2023-04-18T04:47:34.167Z,5.20
2023-04-18T04:48:34.078Z,5.40
2023-04-18T04:49:34.063Z,6.00
2023-04-18T04:50:34.056Z,5.70
2023-04-18T04:51:34.049Z,5.50
2023-04-18T04:52:34.053Z,5.50
2023-04-18T04:53:34.005Z,5.20
2023-04-18T04:54:34.000Z,5.10
2023-04-18T04:55:33.989Z,5.30
2023-04-18T04:56:34.009Z,5.20
2023-04-18T04:57:33.958Z,5.30
2023-04-18T04:58:34.903Z,5.10
2023-04-18T04:59:34.063Z,4.90
2023-04-18T05:00:33.936Z,5.10
2023-04-18T05:01:34.002Z,5.30
2023-04-18T05:02:34.093Z,5.00
2023-04-18T05:03:34.932Z,4.80
2023-04-18T05:04:34.196Z,5.30
2023-04-18T05:05:33.917Z,4.50
2023-04-18T05:06:33.938Z,5.30
2023-04-18T05:07:34.548Z,5.00
2023-04-18T05:08:33.899Z,4.90
2023-04-18T05:09:33.809Z,5.20
2023-04-18T05:10:33.797Z,4.90
2023-04-18T05:11:33.820Z,4.60
2023-04-18T05:12:33.763Z,4.70
2023-04-18T05:13:33.774Z,4.90
2023-04-18T05:14:33.742Z,5.40
2023-04-18T05:15:33.749Z,4.70
2023-04-18T05:16:33.811Z,5.20
2023-04-18T05:17:33.730Z,4.90
2023-04-18T05:18:35.031Z,4.90
2023-04-18T05:19:33.667Z,5.20
2023-04-18T05:20:33.693Z,6.00
2023-04-18T05:21:33.631Z,5.30
2023-04-18T05:22:33.642Z,5.70
2023-04-18T05:23:33.609Z,5.20
2023-04-18T05:24:33.598Z,5.40
2023-04-18T05:25:33.632Z,5.60
2023-04-18T05:26:33.591Z,5.70
2023-04-18T05:27:33.558Z,5.80
2023-04-18T05:28:33.552Z,5.70
2023-04-18T05:29:33.529Z,4.60
2023-04-18T05:30:33.570Z,5.90
2023-04-18T05:31:33.561Z,5.70
2023-04-18T05:32:33.540Z,5.50
2023-04-18T05:33:33.485Z,5.70
2023-04-18T05:34:33.479Z,6.20
2023-04-18T05:35:33.503Z,5.60
2023-04-18T05:36:33.452Z,6.00
2023-04-18T05:37:33.448Z,6.30
2023-04-18T05:38:33.418Z,5.90
2023-04-18T05:39:33.414Z,6.00
2023-04-18T05:40:33.426Z,5.40
2023-04-18T05:41:33.382Z,5.80
2023-04-18T05:42:33.379Z,5.50
2023-04-18T05:43:33.352Z,5.40
2023-04-18T05:44:33.342Z,6.70
2023-04-18T05:45:33.376Z,5.60
2023-04-18T05:46:33.323Z,5.90
2023-04-18T05:47:33.373Z,5.70
2023-04-18T05:48:33.302Z,6.00
2023-04-18T05:49:33.279Z,6.40
2023-04-18T05:50:33.300Z,5.30
2023-04-18T05:51:33.235Z,6.00
2023-04-18T05:52:33.256Z,6.10
2023-04-18T05:53:33.226Z,6.40
2023-04-18T05:54:33.226Z,5.80
2023-04-18T05:55:33.221Z,6.80
2023-04-18T05:56:33.197Z,6.00
2023-04-18T05:57:33.174Z,6.30
2023-04-18T05:58:33.157Z,5.60
2023-04-18T05:59:33.147Z,5.90
2023-04-18T06:00:33.166Z,6.10
2023-04-18T06:01:33.111Z,5.60
2023-04-18T06:02:33.213Z,6.20
2023-04-18T06:03:33.336Z,6.60
2023-04-18T06:04:33.336Z,6.30
2023-04-18T06:05:33.310Z,6.50
2023-04-18T06:06:33.048Z,7.30
2023-04-18T06:07:33.037Z,6.00
2023-04-18T06:08:33.028Z,6.10
2023-04-18T06:09:33.008Z,6.20
2023-04-18T06:10:33.044Z,6.00
2023-04-18T06:11:32.993Z,5.60
2023-04-18T06:12:32.987Z,6.40
2023-04-18T06:13:32.954Z,6.30
2023-04-18T06:14:32.950Z,6.40
2023-04-18T06:15:32.971Z,5.90
2023-04-18T06:16:32.981Z,4.80
2023-04-18T06:17:32.931Z,6.30
2023-04-18T06:18:32.908Z,6.70
2023-04-18T06:19:32.882Z,6.20
2023-04-18T06:20:32.896Z,6.80
2023-04-18T06:21:32.847Z,6.50
2023-04-18T06:22:32.839Z,6.40
2023-04-18T06:23:32.820Z,7.00
2023-04-18T06:24:33.050Z,6.70
2023-04-18T06:25:32.839Z,6.50
2023-04-18T06:26:32.801Z,6.20
2023-04-18T06:27:32.792Z,6.40
2023-04-18T06:28:32.761Z,5.80
2023-04-18T06:29:32.746Z,7.00
2023-04-18T06:30:32.771Z,5.80
2023-04-18T06:31:32.731Z,6.10
2023-04-18T06:32:32.769Z,6.20
2023-04-18T06:33:32.700Z,5.70
2023-04-18T06:34:32.693Z,6.00
2023-04-18T06:35:32.704Z,6.50
2023-04-18T06:36:32.650Z,5.90
2023-04-18T06:37:33.433Z,5.90
2023-04-18T06:38:33.169Z,5.60
2023-04-18T06:39:32.615Z,6.10
2023-04-18T06:40:32.636Z,5.80
2023-04-18T06:41:32.600Z,6.90
2023-04-18T06:42:32.593Z,6.00
2023-04-18T06:43:32.741Z,5.80
2023-04-18T06:44:32.572Z,6.10
2023-04-18T06:45:32.683Z,6.10
2023-04-18T06:46:32.540Z,5.90
2023-04-18T06:47:32.801Z,5.70
2023-04-18T06:48:32.502Z,6.30
2023-04-18T06:49:32.492Z,6.20
2023-04-18T06:50:32.471Z,6.20
2023-04-18T06:51:32.485Z,5.60
2023-04-18T06:52:32.448Z,5.80
2023-04-18T06:53:32.427Z,6.10
2023-04-18T06:54:32.419Z,6.00
2023-04-18T06:55:32.437Z,6.80
2023-04-18T06:56:34.383Z,6.60
2023-04-18T06:57:32.398Z,5.70
2023-04-18T06:58:32.377Z,6.20
2023-04-18T06:59:32.393Z,6.00
2023-04-18T07:00:32.356Z,6.70
2023-04-18T07:01:32.442Z,6.60
2023-04-18T07:02:32.414Z,6.50
2023-04-18T07:03:32.362Z,7.10
2023-04-18T07:04:32.309Z,6.30
2023-04-18T07:05:32.304Z,6.10
2023-04-18T07:06:32.288Z,6.60
2023-04-18T07:07:32.274Z,7.00
2023-04-18T07:08:32.247Z,6.80
2023-04-18T07:09:32.429Z,6.90
2023-04-18T07:10:33.082Z,6.20
2023-04-18T07:11:32.391Z,6.00
2023-04-18T07:12:32.181Z,7.30
2023-04-18T07:13:32.182Z,6.40
2023-04-18T07:14:34.096Z,6.30
2023-04-18T07:15:32.156Z,6.00
2023-04-18T07:16:32.216Z,6.70
2023-04-18T07:17:32.164Z,6.90
2023-04-18T07:18:38.008Z,7.50
2023-04-18T07:19:33.088Z,6.50
2023-04-18T07:20:32.075Z,5.90
2023-04-18T07:21:32.097Z,6.20
2023-04-18T07:22:32.061Z,5.90
2023-04-18T07:23:32.143Z,6.00
2023-04-18T07:24:32.020Z,6.60
2023-04-18T07:25:32.041Z,6.50
2023-04-18T07:26:32.042Z,6.50
2023-04-18T07:27:32.005Z,6.20
2023-04-18T07:28:31.969Z,7.00
2023-04-18T07:29:31.957Z,5.90
2023-04-18T07:30:31.943Z,6.70
2023-04-18T07:31:32.034Z,6.80
2023-04-18T07:32:32.007Z,6.20
2023-04-18T07:33:31.950Z,6.90
2023-04-18T07:34:31.887Z,7.40
2023-04-18T07:35:31.887Z,6.60
2023-04-18T07:36:31.909Z,6.60
2023-04-18T07:37:31.857Z,6.50
2023-04-18T07:38:31.848Z,6.50
2023-04-18T07:39:31.886Z,6.80
2023-04-18T07:40:31.819Z,6.20
2023-04-18T07:41:31.844Z,6.00
2023-04-18T07:42:31.799Z,7.40
2023-04-18T07:43:31.797Z,6.30
2023-04-18T07:44:31.768Z,7.00
2023-04-18T07:45:31.760Z,6.70
2023-04-18T07:46:31.813Z,5.80
2023-04-18T07:47:32.907Z,6.50
2023-04-18T07:48:31.716Z,7.30
2023-04-18T07:49:31.697Z,6.60
2023-04-18T07:50:31.761Z,7.00
2023-04-18T07:51:31.716Z,6.40
2023-04-18T07:52:31.661Z,6.40
2023-04-18T07:53:31.650Z,6.30
2023-04-18T07:54:31.638Z,7.20
2023-04-18T07:55:31.663Z,6.40
2023-04-18T07:56:31.640Z,7.20
2023-04-18T07:57:31.602Z,6.40
2023-04-18T07:58:31.581Z,7.00
2023-04-18T07:59:31.574Z,6.80
2023-04-18T08:00:31.569Z,6.70
2023-04-18T08:01:31.611Z,6.70
2023-04-18T08:02:31.639Z,6.20
2023-04-18T08:03:31.582Z,6.40
2023-04-18T08:04:31.626Z,7.10
2023-04-18T08:05:31.513Z,6.80
2023-04-18T08:06:31.506Z,6.70
2023-04-18T08:07:31.478Z,6.70
2023-04-18T08:08:31.457Z,7.00
2023-04-18T08:09:31.470Z,7.50
2023-04-18T08:10:31.430Z,7.00
2023-04-18T08:11:31.442Z,6.50
2023-04-18T08:12:31.398Z,6.80
2023-04-18T08:13:31.404Z,6.70
2023-04-18T08:14:31.370Z,6.90
2023-04-18T08:15:31.359Z,6.30
2023-04-18T08:16:31.448Z,6.80
2023-04-18T08:17:31.350Z,7.30
2023-04-18T08:18:31.328Z,6.70
2023-04-18T08:19:31.312Z,7.00
2023-04-18T08:20:31.287Z,7.60
2023-04-18T08:21:31.311Z,7.90
2023-04-18T08:22:31.266Z,7.60
2023-04-18T08:23:31.285Z,6.90
2023-04-18T08:24:31.308Z,7.00
2023-04-18T08:25:31.240Z,6.80
2023-04-18T08:26:31.236Z,7.30
2023-04-18T08:27:31.200Z,7.00
2023-04-18T08:28:31.189Z,6.60
2023-04-18T08:29:31.178Z,7.90
2023-04-18T08:30:31.305Z,6.90
2023-04-18T08:31:31.211Z,7.10
2023-04-18T08:32:31.154Z,6.50
2023-04-18T08:33:31.131Z,6.70
2023-04-18T08:34:31.112Z,6.50
2023-04-18T08:35:31.146Z,7.00
2023-04-18T08:36:31.119Z,6.80
2023-04-18T08:37:31.095Z,7.10
2023-04-18T08:38:31.055Z,7.40
2023-04-18T08:39:31.054Z,6.70
2023-04-18T08:40:31.055Z,7.20
2023-04-18T08:41:31.130Z,7.50
2023-04-18T08:42:31.002Z,6.80
2023-04-18T08:43:30.998Z,6.90
2023-04-18T08:44:31.141Z,7.10
2023-04-18T08:45:30.985Z,6.40
2023-04-18T08:46:30.965Z,7.30
2023-04-18T08:47:30.953Z,7.40
2023-04-18T08:48:30.925Z,6.60
2023-04-18T08:49:30.928Z,6.50
2023-04-18T08:50:30.938Z,6.90
2023-04-18T08:51:30.912Z,6.80
2023-04-18T08:52:30.883Z,6.30
2023-04-18T08:53:30.854Z,8.10
2023-04-18T08:54:30.845Z,6.80
2023-04-18T08:55:30.833Z,6.50
2023-04-18T08:56:30.844Z,6.20
2023-04-18T08:57:30.816Z,6.30
2023-04-18T08:58:30.789Z,7.00
2023-04-18T08:59:30.786Z,6.90
2023-04-18T09:00:30.753Z,6.30
2023-04-18T09:01:30.797Z,7.10
2023-04-18T09:02:30.768Z,7.00
2023-04-18T09:03:30.745Z,7.00
2023-04-18T09:04:30.763Z,6.30
2023-04-18T09:05:30.715Z,6.90
2023-04-18T09:06:30.705Z,7.20
2023-04-18T09:07:30.673Z,6.30
2023-04-18T09:08:30.654Z,6.60
2023-04-18T09:09:30.656Z,6.90
2023-04-18T09:10:30.639Z,7.40
2023-04-18T09:11:30.644Z,6.20
2023-04-18T09:12:30.601Z,6.70
2023-04-18T09:13:30.596Z,6.20
2023-04-18T09:14:30.570Z,6.50
2023-04-18T09:15:30.570Z,6.30
2023-04-18T09:16:30.625Z,6.60
2023-04-18T09:17:30.548Z,6.00
2023-04-18T09:18:30.521Z,6.00
2023-04-18T09:19:30.536Z,6.60
2023-04-18T09:20:30.495Z,5.90
2023-04-18T09:21:30.523Z,6.90
2023-04-18T09:22:30.473Z,6.80
2023-04-18T09:23:30.475Z,6.20
2023-04-18T09:24:30.461Z,7.10
2023-04-18T09:25:30.460Z,6.80
2023-04-18T09:26:30.446Z,6.70
2023-04-18T09:27:30.405Z,6.90
2023-04-18T09:28:30.425Z,6.40
2023-04-18T09:29:30.394Z,6.50
2023-04-18T09:30:30.372Z,6.60
2023-04-18T09:31:30.524Z,6.10
2023-04-18T09:32:30.394Z,5.70
2023-04-18T09:33:30.347Z,6.00
2023-04-18T09:34:30.310Z,6.20
2023-04-18T09:35:30.352Z,6.40
2023-04-18T09:36:30.319Z,5.90
2023-04-18T09:37:30.303Z,6.60
2023-04-18T09:38:30.270Z,5.80
2023-04-18T09:39:30.254Z,5.90
2023-04-18T09:40:30.235Z,6.30
2023-04-18T09:41:30.229Z,6.00
2023-04-18T09:42:30.234Z,5.60
2023-04-18T09:43:30.997Z,5.50
2023-04-18T09:44:30.194Z,6.00
2023-04-18T09:45:30.182Z,5.80
2023-04-18T09:46:30.179Z,6.00
2023-04-18T09:47:30.229Z,6.20
2023-04-18T09:48:30.125Z,5.80
2023-04-18T09:49:30.126Z,5.90
2023-04-18T09:50:30.107Z,5.70
2023-04-18T09:51:30.096Z,5.50
2023-04-18T09:52:30.094Z,5.70
2023-04-18T09:53:30.065Z,5.30
2023-04-18T09:54:30.056Z,5.90
2023-04-18T09:55:30.054Z,6.20
2023-04-18T09:56:30.017Z,5.40
2023-04-18T09:57:30.080Z,5.40
2023-04-18T09:58:29.993Z,6.10
2023-04-18T09:59:29.991Z,5.80
2023-04-18T10:00:29.975Z,5.70
2023-04-18T10:01:29.994Z,6.00
2023-04-18T10:02:30.083Z,5.60
2023-04-18T10:03:30.016Z,5.60
2023-04-18T10:04:30.029Z,5.20
2023-04-18T10:05:29.912Z,5.40
2023-04-18T10:06:29.904Z,5.40
2023-04-18T10:07:29.918Z,5.20
2023-04-18T10:08:29.860Z,5.00
2023-04-18T10:09:29.855Z,5.40
2023-04-18T10:10:29.838Z,4.90
2023-04-18T10:11:29.840Z,4.80
2023-04-18T10:12:29.847Z,5.60
2023-04-18T10:13:29.809Z,4.90
2023-04-18T10:14:29.780Z,5.10
2023-04-18T10:15:29.771Z,4.40
2023-04-18T10:16:29.785Z,5.30
2023-04-18T10:17:29.946Z,5.50
2023-04-18T10:18:29.786Z,5.40
2023-04-18T10:19:29.747Z,5.70
2023-04-18T10:20:29.706Z,5.50
2023-04-18T10:21:29.692Z,5.10
2023-04-18T10:22:29.744Z,5.50
2023-04-18T10:23:29.671Z,4.80
2023-04-18T10:24:29.650Z,5.30
2023-04-18T10:25:29.632Z,4.80
2023-04-18T10:26:29.624Z,5.10
2023-04-18T10:27:29.664Z,5.10
2023-04-18T10:28:29.596Z,5.00
2023-04-18T10:29:29.599Z,4.80
2023-04-18T10:30:29.563Z,5.00
2023-04-18T10:31:29.677Z,4.90
2023-04-18T10:32:29.604Z,5.10
2023-04-18T10:33:32.296Z,4.80
2023-04-18T10:34:29.598Z,5.10
2023-04-18T10:35:29.536Z,4.50
2023-04-18T10:36:29.485Z,4.70
2023-04-18T10:37:29.507Z,4.90
2023-04-18T10:38:29.479Z,5.10
2023-04-18T10:39:29.454Z,5.00
2023-04-18T10:40:29.432Z,4.30
2023-04-18T10:41:29.432Z,5.00
2023-04-18T10:42:29.432Z,4.50
2023-04-18T10:43:29.403Z,5.10
2023-04-18T10:44:29.380Z,4.80
2023-04-18T10:45:29.376Z,5.10
2023-04-18T10:46:32.213Z,5.20
2023-04-18T10:47:29.425Z,5.00
2023-04-18T10:48:29.351Z,4.90
2023-04-18T10:49:32.079Z,5.30
2023-04-18T10:50:29.291Z,5.10
2023-04-18T10:51:29.326Z,5.20
2023-04-18T10:52:29.300Z,5.50
2023-04-18T10:53:29.270Z,5.20
2023-04-18T10:54:29.268Z,6.10
2023-04-18T10:55:29.297Z,6.40
2023-04-18T10:56:29.221Z,5.50
2023-04-18T10:57:29.247Z,5.30
2023-04-18T10:58:29.209Z,5.50
2023-04-18T10:59:29.188Z,5.30
2023-04-18T11:00:29.173Z,5.30
2023-04-18T11:01:32.150Z,5.30
2023-04-18T11:02:29.296Z,5.50
2023-04-18T11:03:29.154Z,5.50
2023-04-18T11:04:29.301Z,4.90
2023-04-18T11:05:29.113Z,5.70
2023-04-18T11:06:29.127Z,5.40
2023-04-18T11:07:30.054Z,5.60
2023-04-18T11:08:29.172Z,6.20
2023-04-18T11:09:29.087Z,5.30
2023-04-18T11:10:29.041Z,5.90
2023-04-18T11:11:29.039Z,5.60
2023-04-18T11:12:29.040Z,5.10
2023-04-18T11:13:29.007Z,5.20
2023-04-18T11:14:28.985Z,5.90
2023-04-18T11:15:30.839Z,5.20
2023-04-18T11:16:28.971Z,5.60
2023-04-18T11:17:29.019Z,6.00
2023-04-18T11:18:28.927Z,5.80
2023-04-18T11:19:28.922Z,6.10
2023-04-18T11:20:28.898Z,6.30
2023-04-18T11:21:30.626Z,5.80
2023-04-18T11:22:28.912Z,6.50
2023-04-18T11:23:28.875Z,5.50
2023-04-18T11:24:28.855Z,5.60
2023-04-18T11:25:28.843Z,6.10
2023-04-18T11:26:28.824Z,6.10
2023-04-18T11:27:28.830Z,5.90
2023-04-18T11:28:28.806Z,6.50
2023-04-18T11:29:28.766Z,5.90
2023-04-18T11:30:28.769Z,6.30
2023-04-18T11:31:28.801Z,6.40
2023-04-18T11:32:28.848Z,6.00
2023-04-18T11:33:28.734Z,6.00
2023-04-18T11:34:28.729Z,6.50
2023-04-18T11:35:28.766Z,6.50
2023-04-18T11:36:28.780Z,6.70
2023-04-18T11:37:28.809Z,5.70
2023-04-18T11:38:28.750Z,5.90
2023-04-18T11:39:28.839Z,6.40
2023-04-18T11:40:28.639Z,5.50
2023-04-18T11:41:28.626Z,5.90
2023-04-18T11:42:28.643Z,5.60
2023-04-18T11:43:28.610Z,5.90
2023-04-18T11:44:28.577Z,5.90
2023-04-18T11:45:28.572Z,5.90
2023-04-18T11:46:28.594Z,5.70
2023-04-18T11:47:28.620Z,6.00
2023-04-18T11:48:28.528Z,5.30
2023-04-18T11:49:28.526Z,5.80
2023-04-18T11:50:28.506Z,5.40
2023-04-18T11:51:28.484Z,5.60
2023-04-18T11:52:28.525Z,5.20
2023-04-18T11:53:28.461Z,5.50
2023-04-18T11:54:28.646Z,5.10
2023-04-18T11:55:28.438Z,6.10
2023-04-18T11:56:29.063Z,5.60
2023-04-18T11:57:28.446Z,5.50
2023-04-18T11:58:28.423Z,5.40
2023-04-18T11:59:29.325Z,5.80
2023-04-18T12:00:28.382Z,6.10
2023-04-18T12:01:28.385Z,6.30
2023-04-18T12:02:28.505Z,5.80
2023-04-18T12:03:28.508Z,6.10
2023-04-18T12:04:28.466Z,5.90
2023-04-18T12:05:28.434Z,5.90
2023-04-18T12:06:28.419Z,6.30
2023-04-18T12:07:28.278Z,7.90
2023-04-18T12:08:28.260Z,6.20
2023-04-18T12:09:28.529Z,5.60
2023-04-18T12:10:28.252Z,5.70
2023-04-18T12:11:28.249Z,5.30
2023-04-18T12:12:29.087Z,5.80
2023-04-18T12:13:28.192Z,5.00
2023-04-18T12:14:28.185Z,5.30
2023-04-18T12:15:28.188Z,5.40
2023-04-18T12:16:28.409Z,5.60
2023-04-18T12:17:28.310Z,4.90
2023-04-18T12:18:28.133Z,4.80
2023-04-18T12:19:28.157Z,5.20
2023-04-18T12:20:28.117Z,5.20
2023-04-18T12:21:28.119Z,5.40
2023-04-18T12:22:28.082Z,4.80
2023-04-18T12:23:28.069Z,5.60
2023-04-18T12:24:28.862Z,5.60
2023-04-18T12:25:28.034Z,4.80
2023-04-18T12:26:28.065Z,5.50
2023-04-18T12:27:28.004Z,5.40
2023-04-18T12:28:28.090Z,5.40
2023-04-18T12:29:27.984Z,5.40
2023-04-18T12:30:27.967Z,5.30
2023-04-18T12:31:28.027Z,4.60
2023-04-18T12:32:28.051Z,6.00
2023-04-18T12:33:27.943Z,5.60
2023-04-18T12:34:27.931Z,5.20
2023-04-18T12:35:27.914Z,5.00
2023-04-18T12:36:27.923Z,5.10
2023-04-18T12:37:27.884Z,5.10
2023-04-18T12:38:27.867Z,5.90
2023-04-18T12:39:27.853Z,5.90
2023-04-18T12:40:27.866Z,5.60
2023-04-18T12:41:27.835Z,5.70
2023-04-18T12:42:27.804Z,6.10
2023-04-18T12:43:27.787Z,6.20
2023-04-18T12:44:27.779Z,6.10
2023-04-18T12:45:27.767Z,5.60
2023-04-18T12:46:27.921Z,5.80
2023-04-18T12:47:27.758Z,6.40
2023-04-18T12:48:27.730Z,6.50
2023-04-18T12:49:27.718Z,6.30
2023-04-18T12:50:27.713Z,5.80
2023-04-18T12:51:27.742Z,5.50
2023-04-18T12:52:27.678Z,5.90
2023-04-18T12:53:27.656Z,6.40
2023-04-18T12:54:27.656Z,5.90
2023-04-18T12:55:27.625Z,5.40
2023-04-18T12:56:27.635Z,5.10
2023-04-18T12:57:28.032Z,6.40
2023-04-18T12:58:27.608Z,6.20
2023-04-18T12:59:28.557Z,5.60
2023-04-18T13:00:27.582Z,5.90
2023-04-18T13:01:27.686Z,6.10
2023-04-18T13:02:27.726Z,6.00
2023-04-18T13:03:27.588Z,5.90
2023-04-18T13:04:27.865Z,5.30
2023-04-18T13:05:29.895Z,6.40
2023-04-18T13:06:27.499Z,5.80
2023-04-18T13:07:27.854Z,5.70
2023-04-18T13:08:27.479Z,5.60
2023-04-18T13:09:27.451Z,5.70
2023-04-18T13:10:27.440Z,6.20
2023-04-18T13:11:27.436Z,5.30
2023-04-18T13:12:27.451Z,5.80
2023-04-18T13:13:27.391Z,6.10
2023-04-18T13:14:27.383Z,6.10
2023-04-18T13:15:27.619Z,5.20
2023-04-18T13:16:27.417Z,5.80
2023-04-18T13:17:27.408Z,5.50
2023-04-18T13:18:27.342Z,5.60